Terminal Aerodrome Forecast
Issued by NWS

Home | Current Version | Previous Version | Text Only | Print | Product List | Glossary On
Versions: 1 2 3 4 5 6 7 8 9 10 11 12 13 14 15
000
FTUS41 KAKQ 250500
TAFPHF
TAF
KPHF 250539Z 2506/2606 VRB03KT P6SM BKN250
     FM251300 17013KT P6SM BKN150
     FM251600 17015G25KT P6SM BKN050 OVC100
     FM252000 18014KT 5SM SHRA BKN040
     FM260200 22008KT P6SM BKN070=

USA.gov is the U.S. government's official web portal to all federal, state and local government web resources and services.